createdAt,value
2022-09-20T00:01:36.051Z,744
2022-09-20T00:07:05.249Z,739
2022-09-20T00:12:35.729Z,733
2022-09-20T00:18:06.236Z,743
2022-09-20T00:23:35.687Z,732
2022-09-20T00:29:06.156Z,733
2022-09-20T00:34:36.679Z,731
2022-09-20T00:40:06.195Z,730
2022-09-20T00:45:36.786Z,721
2022-09-20T00:51:07.226Z,722
2022-09-20T00:56:36.706Z,727
2022-09-20T01:02:07.269Z,727
2022-09-20T01:07:36.702Z,727
2022-09-20T01:13:07.149Z,722
2022-09-20T01:18:37.625Z,719
2022-09-20T01:24:07.130Z,722
2022-09-20T01:29:37.591Z,718
2022-09-20T01:35:08.062Z,722
2022-09-20T01:40:37.742Z,722
2022-09-20T01:46:08.196Z,716
2022-09-20T01:51:37.643Z,716
2022-09-20T01:57:08.135Z,720
2022-09-20T02:02:38.671Z,723
2022-09-20T02:08:08.071Z,715
2022-09-20T02:13:38.579Z,719
2022-09-20T02:19:09.052Z,719
2022-09-20T02:24:38.511Z,724
2022-09-20T02:30:09.002Z,722
2022-09-20T02:35:39.477Z,723
2022-09-20T02:41:08.958Z,721
2022-09-20T02:46:39.567Z,718
2022-09-20T02:52:10.021Z,732
2022-09-20T02:57:39.503Z,731
2022-09-20T03:03:10.053Z,736
2022-09-20T03:08:40.488Z,736
2022-09-20T03:14:09.979Z,739
2022-09-20T03:19:40.495Z,734
2022-09-20T03:25:10.922Z,731
2022-09-20T03:30:41.598Z,729
2022-09-20T03:36:12.029Z,728
2022-09-20T03:41:42.488Z,727
2022-09-20T03:47:12.001Z,731
2022-09-20T03:52:42.492Z,729
2022-09-20T03:58:13.031Z,729
2022-09-20T04:03:42.532Z,730
2022-09-20T04:09:13.035Z,730
2022-09-20T04:14:43.516Z,725
2022-09-20T04:20:12.983Z,725
2022-09-20T04:25:44.300Z,722
2022-09-20T04:31:14.142Z,722
2022-09-20T04:36:43.462Z,722
2022-09-20T04:42:13.950Z,722
2022-09-20T04:47:44.398Z,726
2022-09-20T04:53:13.984Z,722
2022-09-20T04:58:44.386Z,721
2022-09-20T05:04:14.835Z,717
2022-09-20T05:09:45.290Z,719
2022-09-20T05:15:15.914Z,716
2022-09-20T05:20:46.357Z,717
2022-09-20T05:26:16.849Z,708
2022-09-20T05:31:46.417Z,704
2022-09-20T05:37:16.804Z,703
2022-09-20T05:42:46.291Z,697
2022-09-20T05:48:16.788Z,698
2022-09-20T05:53:47.248Z,690
2022-09-20T05:59:17.752Z,690
2022-09-20T06:04:47.231Z,691
2022-09-20T06:10:17.691Z,692
2022-09-20T06:15:47.171Z,689
2022-09-20T06:21:17.665Z,682
2022-09-20T06:26:48.128Z,683
2022-09-20T06:32:17.611Z,685
2022-09-20T06:37:48.107Z,683
2022-09-20T06:43:18.572Z,678
2022-09-20T06:48:49.051Z,672
2022-09-20T06:54:18.543Z,676
2022-09-20T06:59:49.014Z,671
2022-09-20T07:05:19.631Z,674
2022-09-20T07:10:49.176Z,673
2022-09-20T07:16:19.656Z,669
2022-09-20T07:21:49.124Z,670
2022-09-20T07:27:19.604Z,670
2022-09-20T07:32:50.071Z,670
2022-09-20T07:38:19.553Z,669
2022-09-20T07:43:50.050Z,670
2022-09-20T07:49:20.610Z,663
2022-09-20T07:54:50.116Z,661
2022-09-20T08:00:20.661Z,660
2022-09-20T08:05:50.087Z,651
2022-09-20T08:11:20.547Z,650
2022-09-20T08:16:51.087Z,651
2022-09-20T08:22:20.487Z,648
2022-09-20T08:27:50.959Z,646
2022-09-20T08:33:21.513Z,646
2022-09-20T08:44:21.396Z,639
2022-09-20T08:49:56.914Z,634
2022-09-20T08:55:21.351Z,629
2022-09-20T09:00:50.939Z,626
2022-09-20T09:06:21.394Z,623
2022-09-20T09:11:50.838Z,627
2022-09-20T09:17:27.184Z,623
2022-09-20T09:22:51.798Z,624
2022-09-20T09:28:21.257Z,617
2022-09-20T09:33:51.733Z,611
2022-09-20T09:39:22.273Z,613
2022-09-20T09:44:51.704Z,610
2022-09-20T09:50:22.184Z,612
2022-09-20T09:55:51.686Z,608
2022-09-20T10:01:22.250Z,603
2022-09-20T10:06:52.653Z,605
2022-09-20T10:12:22.131Z,605
2022-09-20T10:17:52.564Z,605
2022-09-20T10:28:52.574Z,608
2022-09-20T10:34:23.017Z,604
2022-09-20T10:39:52.487Z,604
2022-09-20T10:45:44.371Z,603
2022-09-20T10:50:53.467Z,605
2022-09-20T10:56:23.952Z,603
2022-09-20T11:01:53.519Z,593
2022-09-20T11:07:23.921Z,597
2022-09-20T11:12:54.376Z,594
2022-09-20T11:18:24.897Z,590
2022-09-20T11:23:54.425Z,592
2022-09-20T11:29:24.839Z,595
2022-09-20T11:34:54.354Z,589
2022-09-20T11:40:24.836Z,584
2022-09-20T11:47:01.345Z,583
2022-09-20T11:52:30.864Z,583
2022-09-20T11:58:01.312Z,583
2022-09-20T12:03:30.916Z,578
2022-09-20T12:09:01.305Z,587
2022-09-20T12:14:31.779Z,588
2022-09-20T12:20:01.240Z,580
2022-09-20T12:25:31.766Z,582
2022-09-20T12:31:02.208Z,576
2022-09-20T12:36:31.708Z,576
2022-09-20T12:42:01.259Z,575
2022-09-20T12:47:31.687Z,577
2022-09-20T12:53:01.194Z,574
2022-09-20T12:58:31.704Z,575
2022-09-20T13:04:02.170Z,576
2022-09-20T13:09:31.645Z,573
2022-09-20T13:15:02.154Z,564
2022-09-20T13:20:32.639Z,566
2022-09-20T13:26:02.110Z,568
2022-09-20T13:31:32.691Z,570
2022-09-20T13:37:02.082Z,565
2022-09-20T13:42:32.554Z,567
2022-09-20T13:48:03.149Z,564
2022-09-20T13:53:41.416Z,567
2022-09-20T13:59:03.093Z,566
2022-09-20T14:04:33.608Z,571
2022-09-20T14:10:03.138Z,569
2022-09-20T14:15:33.581Z,567
2022-09-20T14:21:04.057Z,570
2022-09-20T14:26:33.519Z,571
2022-09-20T14:32:03.979Z,622
2022-09-20T14:37:33.517Z,633
2022-09-20T14:43:03.972Z,648
2022-09-20T14:48:34.427Z,658
2022-09-20T14:54:03.953Z,666
2022-09-20T14:59:34.414Z,666
2022-09-20T15:05:05.028Z,664
2022-09-20T15:10:34.535Z,668
2022-09-20T15:21:35.462Z,675
2022-09-20T15:27:04.981Z,693
2022-09-20T15:32:35.453Z,691
2022-09-20T15:38:05.921Z,698
2022-09-20T15:43:36.432Z,706
2022-09-20T15:49:06.107Z,709
2022-09-20T15:54:36.491Z,711
2022-09-20T16:00:07.035Z,727
2022-09-20T16:05:36.474Z,732
2022-09-20T16:11:06.952Z,738
2022-09-20T16:16:40.453Z,740
2022-09-20T16:22:05.947Z,737
2022-09-20T16:27:36.455Z,737
2022-09-20T16:33:06.996Z,754
2022-09-20T16:38:36.407Z,767
2022-09-20T16:44:06.877Z,762
2022-09-20T16:49:37.466Z,774
2022-09-20T16:55:06.926Z,769
2022-09-20T17:00:37.434Z,774
2022-09-20T17:06:07.904Z,781
2022-09-20T17:11:37.377Z,781
2022-09-20T17:17:07.860Z,790
2022-09-20T17:22:37.384Z,779
2022-09-20T17:28:07.822Z,783
2022-09-20T17:33:38.314Z,797
2022-09-20T17:39:07.812Z,811
2022-09-20T17:44:38.278Z,810
2022-09-20T17:50:08.754Z,793
2022-09-20T17:55:38.243Z,801
2022-09-20T18:01:12.420Z,845
2022-09-20T18:06:38.188Z,823
2022-09-20T18:12:08.673Z,830
2022-09-20T18:17:39.126Z,819
2022-09-20T18:23:08.618Z,828
2022-09-20T18:28:39.156Z,827
2022-09-20T18:34:09.569Z,831
2022-09-20T18:39:39.072Z,831
2022-09-20T18:45:09.560Z,835
2022-09-20T18:50:40.023Z,844
2022-09-20T18:56:09.555Z,856
2022-09-20T19:01:40.248Z,867
2022-09-20T19:07:10.513Z,886
2022-09-20T19:12:40.029Z,894
2022-09-20T19:18:10.527Z,879
2022-09-20T19:23:40.964Z,866
2022-09-20T19:29:10.463Z,865
2022-09-20T19:34:40.991Z,855
2022-09-20T19:40:11.651Z,847
2022-09-20T19:45:41.059Z,846
2022-09-20T19:51:11.562Z,839
2022-09-20T19:56:42.023Z,840
2022-09-20T20:02:10.531Z,847
2022-09-20T20:07:41.028Z,838
2022-09-20T20:13:11.490Z,837
2022-09-20T20:18:40.988Z,839
2022-09-20T20:24:11.486Z,838
2022-09-20T20:29:41.927Z,841
2022-09-20T20:35:11.436Z,837
2022-09-20T20:40:41.923Z,832
2022-09-20T20:46:12.421Z,841
2022-09-20T20:51:41.852Z,846
2022-09-20T20:57:12.350Z,842
2022-09-20T21:02:42.806Z,844
2022-09-20T21:08:12.293Z,838
2022-09-20T21:13:42.802Z,842
2022-09-20T21:19:13.244Z,840
2022-09-20T21:24:42.747Z,842
2022-09-20T21:30:13.243Z,848
2022-09-20T21:35:43.704Z,843
2022-09-20T21:41:13.184Z,841
2022-09-20T21:46:43.673Z,846
2022-09-20T21:52:14.142Z,843
2022-09-20T21:57:43.631Z,840
2022-09-20T22:03:14.131Z,847
2022-09-20T22:08:44.572Z,847
2022-09-20T22:14:14.066Z,846
2022-09-20T22:19:44.564Z,843
2022-09-20T22:25:15.009Z,839
2022-09-20T22:30:44.530Z,834
2022-09-20T22:36:15.016Z,838
2022-09-20T22:41:45.488Z,836
2022-09-20T22:47:14.950Z,845
2022-09-20T22:52:45.459Z,844
2022-09-20T22:58:15.921Z,844
2022-09-20T23:03:45.481Z,845
2022-09-20T23:09:15.923Z,849
2022-09-20T23:14:46.384Z,848
2022-09-20T23:20:15.852Z,850
2022-09-20T23:25:46.339Z,853
2022-09-20T23:31:16.953Z,849
2022-09-20T23:36:46.293Z,853
2022-09-20T23:42:16.797Z,847
2022-09-20T23:47:46.256Z,850
2022-09-20T23:53:16.735Z,848
2022-09-20T23:58:47.330Z,847
